Time;durP1;ratioP1;P1;durP2;ratioP2;P2;SDS_P1;SDS_P2;PMS_P1;PMS_P2;Temp;Humidity;BMP_temperature;BMP_pressure;BME280_temperature;BME280_humidity;BME280_pressure;Samples;Min_cycle;Max_cycle;Signal;HPM_P1;HPM_P2
2022/11/19 00:01:13;;;;;;;19.57;11.20;;;;;;;-1.98;76.16;100116.22;1806410;78;25805;-80
2022/11/19 00:03:41;;;;;;;17.57;11.10;;;;;;;-1.97;75.91;100120.53;1818886;78;27448;-80
2022/11/19 00:06:14;;;;;;;23.12;12.80;;;;;;;-1.95;76.30;100121.71;1803951;78;25881;-81
2022/11/19 00:08:40;;;;;;;18.17;11.55;;;;;;;-1.94;76.30;100122.05;1816002;77;26499;-81
2022/11/19 00:11:13;;;;;;;19.57;11.70;;;;;;;-1.92;76.36;100126.23;1833253;77;26559;-81
2022/11/19 00:13:41;;;;;;;17.60;10.35;;;;;;;-1.89;76.29;100123.38;1821425;77;25797;-80
2022/11/19 00:16:11;;;;;;;22.15;11.65;;;;;;;-1.89;76.23;100125.17;1780083;79;27441;-80
2022/11/19 00:18:39;;;;;;;17.82;11.00;;;;;;;-1.91;76.26;100128.39;1815583;77;26372;-79
2022/11/19 00:21:12;;;;;;;18.98;11.03;;;;;;;-1.93;76.29;100132.92;1822141;77;25757;-80
2022/11/19 00:23:39;;;;;;;21.10;11.95;;;;;;;-1.98;75.99;100131.13;1820830;77;25831;-79
2022/11/19 00:26:12;;;;;;;17.10;11.50;;;;;;;-2.01;76.10;100138.75;1819209;77;25281;-79
2022/11/19 00:28:40;;;;;;;19.00;11.20;;;;;;;-2.06;75.98;100136.14;1811911;77;28220;-80
2022/11/19 00:31:12;;;;;;;19.25;11.10;;;;;;;-2.10;75.83;100142.58;1815742;78;26503;-80
2022/11/19 00:33:40;;;;;;;18.80;12.55;;;;;;;-2.15;76.04;100152.11;1820152;77;26468;-80
2022/11/19 00:36:11;;;;;;;19.62;12.00;;;;;;;-2.18;76.05;100146.27;1822028;77;25817;-81
2022/11/19 00:38:37;;;;;;;16.37;10.80;;;;;;;-2.20;75.96;100145.55;1818118;77;25787;-80
2022/11/19 00:41:04;;;;;;;19.17;11.88;;;;;;;-2.23;76.08;100156.27;1821138;77;27434;-80
2022/11/19 00:43:46;;;;;;;17.02;10.75;;;;;;;-2.26;76.02;100150.77;1822776;77;26513;-80
2022/11/19 00:46:23;;;;;;;17.67;10.90;;;;;;;-2.28;76.27;100154.45;1796718;78;26636;-81
2022/11/19 00:48:52;;;;;;;19.35;11.95;;;;;;;-2.30;76.35;100146.72;1779148;80;26010;-79
2022/11/19 00:51:21;;;;;;;19.17;11.50;;;;;;;-2.27;76.52;100157.45;1844044;76;25757;-80
2022/11/19 00:53:47;;;;;;;21.00;12.40;;;;;;;-2.27;76.59;100148.28;1827904;77;27422;-80
2022/11/19 00:56:17;;;;;;;20.82;12.68;;;;;;;-2.24;76.76;100152.80;1824846;77;25799;-79
2022/11/19 00:58:44;;;;;;;20.47;11.87;;;;;;;-2.20;76.77;100151.61;1799496;78;25703;-80
2022/11/19 01:01:11;;;;;;;20.97;12.37;;;;;;;-2.19;76.76;100158.55;1816295;77;26415;-80
2022/11/19 01:03:39;;;;;;;23.30;12.95;;;;;;;-2.17;76.75;100156.64;1793337;78;26570;-80
2022/11/19 01:06:07;;;;;;;20.20;12.47;;;;;;;-2.16;76.79;100158.80;1802864;78;27639;-80
2022/11/19 01:08:34;;;;;;;21.77;13.13;;;;;;;-2.15;76.69;100156.52;1833453;76;25746;-80
2022/11/19 01:11:14;;;;;;;18.17;11.53;;;;;;;-2.18;76.62;100161.52;1816661;77;26544;-80
2022/11/19 01:13:41;;;;;;;21.93;13.03;;;;;;;-2.22;76.71;100158.77;1807339;78;25762;-80
2022/11/19 01:16:16;;;;;;;19.15;12.07;;;;;;;-2.26;76.59;100161.73;1828958;77;26353;-80
2022/11/19 01:18:45;;;;;;;18.98;12.63;;;;;;;-2.29;76.57;100169.38;1830141;77;27500;-80
2022/11/19 01:21:12;;;;;;;21.87;13.60;;;;;;;-2.31;76.37;100166.52;1826029;77;25740;-80
2022/11/19 01:23:42;;;;;;;21.25;13.25;;;;;;;-2.35;76.58;100167.20;1815364;78;25537;-80
2022/11/19 01:26:10;;;;;;;17.07;10.38;;;;;;;-2.36;76.69;100162.92;1798198;78;25756;-79
2022/11/19 01:28:37;;;;;;;19.45;12.60;;;;;;;-2.36;76.70;100166.39;1819960;77;26021;-80
2022/11/19 01:31:16;;;;;;;21.20;12.90;;;;;;;-2.36;76.76;100173.41;1819959;77;27436;-80
2022/11/19 01:33:43;;;;;;;18.60;12.43;;;;;;;-2.39;76.75;100165.77;1782753;79;26368;-80
2022/11/19 01:36:15;;;;;;;20.57;12.18;;;;;;;-2.37;77.13;100165.17;1807666;78;26381;-80
2022/11/19 01:38:42;;;;;;;20.85;12.85;;;;;;;-2.37;77.13;100165.17;1823363;77;25936;-80
2022/11/19 01:41:09;;;;;;;18.80;12.23;;;;;;;-2.43;76.99;100157.77;1793015;78;26408;-80
2022/11/19 01:43:48;;;;;;;20.40;13.08;;;;;;;-2.35;77.19;100171.12;1779029;79;28289;-80
2022/11/19 01:46:21;;;;;;;21.85;12.18;;;;;;;-2.35;77.10;100172.45;1798815;77;26405;-80
2022/11/19 01:48:56;;;;;;;22.20;13.50;;;;;;;-2.33;77.28;100172.35;1809466;77;26503;-80
2022/11/19 01:51:47;;;;;;;21.93;13.03;;;;;;;-2.31;77.50;100169.13;1812461;77;26533;-80
2022/11/19 01:54:40;;;;;;;21.17;13.50;;;;;;;-2.30;77.30;100172.10;1818247;77;26359;-79
2022/11/19 01:57:10;;;;;;;21.42;12.50;;;;;;;-2.31;77.28;100166.05;1821145;78;27439;-81
2022/11/19 01:59:38;;;;;;;19.37;12.58;;;;;;;-2.30;77.45;100162.92;1800722;78;26328;-79
2022/11/19 02:02:04;;;;;;;24.23;14.00;;;;;;;-2.27;77.35;100166.17;1789624;78;25860;-80
2022/11/19 02:04:32;;;;;;;20.48;13.15;;;;;;;-2.25;77.30;100168.20;1821008;77;26420;-80
2022/11/19 02:06:58;;;;;;;21.75;12.55;;;;;;;-2.25;77.30;100168.20;1824265;77;26450;-80
2022/11/19 02:09:27;;;;;;;23.65;13.62;;;;;;;-2.28;77.30;100172.82;1820347;77;27536;-80
2022/11/19 02:12:14;;;;;;;24.02;14.30;;;;;;;-2.32;77.43;100175.31;1818270;78;26379;-79
2022/11/19 02:15:10;;;;;;;19.67;12.33;;;;;;;-2.32;77.45;100174.00;1828494;77;25769;-80
2022/11/19 02:18:07;;;;;;;23.12;13.25;;;;;;;-2.38;77.64;100173.54;1807302;77;26561;-80
2022/11/19 02:20:48;;;;;;;25.57;14.15;;;;;;;-2.39;77.72;100173.63;1838069;76;25751;-80
2022/11/19 02:23:46;;;;;;;24.47;14.05;;;;;;;-2.37;77.77;100180.91;1842660;76;27481;-80
2022/11/19 02:26:47;;;;;;;20.17;12.58;;;;;;;-2.33;78.00;100184.16;1802849;77;26554;-80
2022/11/19 02:29:31;;;;;;;24.25;13.88;;;;;;;-2.32;78.01;100177.47;1811837;77;25873;-80
2022/11/19 02:32:14;;;;;;;20.30;12.73;;;;;;;-2.37;77.82;100179.13;1803605;78;26377;-81
2022/11/19 02:34:48;;;;;;;26.02;14.20;;;;;;;-2.39;77.90;100176.25;1753827;79;25747;-80
2022/11/19 02:37:29;;;;;;;21.57;13.10;;;;;;;-2.40;78.04;100178.53;1785253;78;27468;-80
2022/11/19 02:40:10;;;;;;;24.20;14.18;;;;;;;-2.39;78.04;100179.72;1793687;79;25273;-80
2022/11/19 02:42:51;;;;;;;22.58;12.68;;;;;;;-2.42;78.04;100176.50;1809644;78;25807;-79
2022/11/19 02:45:28;;;;;;;24.32;13.90;;;;;;;-2.41;78.11;100174.22;1821599;77;26593;-80
2022/11/19 02:47:59;;;;;;;20.80;13.30;;;;;;;-2.42;78.12;100185.18;1795321;78;26002;-80
2022/11/19 02:50:34;;;;;;;23.35;12.80;;;;;;;-2.43;78.14;100182.22;1828603;77;27429;-80
2022/11/19 02:53:03;;;;;;;23.15;14.83;;;;;;;-2.43;78.18;100178.28;1803965;78;25592;-80
2022/11/19 02:55:30;;;;;;;20.72;12.20;;;;;;;-2.42;78.21;100173.38;1818171;77;25799;-79
2022/11/19 02:58:07;;;;;;;26.02;14.43;;;;;;;-2.43;78.01;100173.50;1818601;77;25759;-80
2022/11/19 03:06:21;;;;;;;22.93;13.75;;;;;;;-2.57;78.02;100199.46;1801841;78;25846;-80
2022/11/19 03:08:48;;;;;;;20.37;12.90;;;;;;;-2.55;78.13;100204.58;1820297;77;26179;-80
2022/11/19 03:11:27;;;;;;;22.07;15.32;;;;;;;-2.56;78.08;100202.42;1827094;77;26858;-80
2022/11/19 03:17:15;;;;;;;21.35;13.50;;;;;;;-2.61;78.63;100189.31;1816497;77;27490;-80
2022/11/19 03:20:06;;;;;;;23.90;15.70;;;;;;;-2.61;78.63;100189.31;1822131;77;25696;-80
2022/11/19 03:22:47;;;;;;;25.72;14.60;;;;;;;-2.56;78.25;100204.20;1818512;77;26520;-80
2022/11/19 03:25:33;;;;;;;22.22;15.10;;;;;;;-2.56;78.32;100207.67;1807709;77;26595;-80
2022/11/19 03:28:11;;;;;;;24.47;14.40;;;;;;;-2.53;78.40;100203.99;1807848;77;25952;-80
2022/11/19 03:30:41;;;;;;;23.65;14.83;;;;;;;-2.56;78.26;100198.49;1793921;78;27454;-80
2022/11/19 03:33:21;;;;;;;26.02;15.63;;;;;;;-2.51;78.38;100204.25;1820535;78;25281;-80
2022/11/19 03:35:52;;;;;;;23.90;15.43;;;;;;;-2.46;78.32;100211.77;1809049;77;25957;-79
2022/11/19 03:38:24;;;;;;;25.00;15.23;;;;;;;-2.44;78.34;100215.12;1822861;77;25931;-80
2022/11/19 03:40:54;;;;;;;23.85;14.68;;;;;;;-2.46;78.22;100222.27;1818167;77;26253;-80
2022/11/19 03:43:26;;;;;;;27.13;14.35;;;;;;;-2.50;78.24;100216.86;1813021;77;27439;-81
2022/11/19 03:45:55;;;;;;;;;;;;;;;-2.52;78.29;100222.69;1800440;78;25983;-80
2022/11/19 03:48:22;;;;;;;20.88;11.80;;;;;;;-2.52;78.39;100226.16;1806803;78;25734;-80
2022/11/19 03:50:59;;;;;;;22.75;12.95;;;;;;;-2.56;78.37;100226.49;1810452;78;26532;-80
2022/11/19 03:53:27;;;;;;;23.60;14.53;;;;;;;-2.56;78.37;100226.49;1783700;79;25752;-79
2022/11/19 03:56:04;;;;;;;28.10;15.05;;;;;;;-2.57;78.53;100226.99;1820265;77;26906;-79
2022/11/19 03:58:41;;;;;;;22.73;14.43;;;;;;;-2.54;78.54;100236.39;1819884;78;25939;-78
2022/11/19 04:01:08;;;;;;;19.67;12.00;;;;;;;-2.55;78.54;100236.89;1783053;78;26430;-78
2022/11/19 04:03:35;;;;;;;24.37;15.10;;;;;;;-2.65;78.74;100229.31;1817895;77;25745;-79
2022/11/19 04:06:03;;;;;;;27.02;15.08;;;;;;;-2.65;78.74;100229.31;1795831;78;25759;-79
2022/11/19 04:08:30;;;;;;;24.82;14.93;;;;;;;-2.59;78.83;100231.98;1829479;77;26864;-79
2022/11/19 04:10:58;;;;;;;24.18;14.95;;;;;;;-2.56;78.75;100239.13;1818049;77;26362;-79
2022/11/19 04:13:24;;;;;;;27.42;15.00;;;;;;;-2.55;78.70;100239.51;1827608;77;25998;-80
2022/11/19 04:15:51;;;;;;;27.50;16.20;;;;;;;-2.56;78.60;100239.13;1808979;77;26003;-79
2022/11/19 04:18:17;;;;;;;25.00;15.55;;;;;;;-2.56;78.90;100242.22;1807430;77;25871;-79
2022/11/19 04:20:45;;;;;;;24.30;16.40;;;;;;;-2.56;78.99;100240.45;1823770;78;28258;-79
2022/11/19 04:23:11;;;;;;;23.40;13.95;;;;;;;-2.53;79.09;100242.01;1815266;78;25813;-79
2022/11/19 04:25:39;;;;;;;26.27;15.58;;;;;;;-2.55;79.00;100237.36;1821581;77;26469;-79
2022/11/19 04:28:05;;;;;;;24.43;14.87;;;;;;;-2.56;79.14;100246.16;1834336;77;25775;-78
2022/11/19 04:30:32;;;;;;;24.65;14.63;;;;;;;-2.56;79.14;100246.16;1813012;78;25891;-79
2022/11/19 04:32:58;;;;;;;25.82;15.38;;;;;;;-2.53;79.34;100238.92;1806808;78;27438;-78
2022/11/19 04:35:24;;;;;;;21.68;13.65;;;;;;;-2.48;79.29;100248.58;1834914;76;25712;-78
2022/11/19 04:37:50;;;;;;;29.85;15.15;;;;;;;-2.48;79.29;100248.58;1819208;76;25656;-79
2022/11/19 04:40:17;;;;;;;27.80;15.50;;;;;;;-2.47;79.31;100244.17;1794931;79;26427;-79
2022/11/19 04:42:43;;;;;;;27.65;15.85;;;;;;;-2.47;79.30;100243.71;1817976;77;25790;-79
2022/11/19 04:45:10;;;;;;;27.05;16.55;;;;;;;-2.43;79.36;100246.93;1814793;77;27422;-79
2022/11/19 04:47:36;;;;;;;26.07;14.53;;;;;;;-2.44;79.30;100245.27;1800559;77;26476;-78
2022/11/19 04:50:03;;;;;;;28.07;15.83;;;;;;;-2.42;79.25;100244.69;1810669;78;25863;-79
2022/11/19 04:52:31;;;;;;;26.87;15.25;;;;;;;-2.46;79.18;100241.94;1798405;78;26488;-78
2022/11/19 04:54:57;;;;;;;24.77;14.70;;;;;;;-2.50;79.13;100238.67;1794172;78;25901;-79
2022/11/19 04:57:24;;;;;;;27.82;15.88;;;;;;;-2.53;79.20;100239.39;1772764;79;27422;-79
2022/11/19 04:59:50;;;;;;;29.23;16.27;;;;;;;-2.50;79.70;100241.30;1827488;76;25829;-79
2022/11/19 05:02:16;;;;;;;27.40;16.20;;;;;;;-2.45;79.63;100234.41;1841086;77;25781;-78
2022/11/19 05:04:42;;;;;;;28.00;16.12;;;;;;;-2.45;79.63;100234.41;1832382;76;25828;-79
2022/11/19 05:07:09;;;;;;;28.07;16.20;;;;;;;-2.40;79.47;100244.94;1791064;78;25235;-79
2022/11/19 05:09:35;;;;;;;28.17;15.63;;;;;;;-2.40;79.47;100244.94;1812098;77;27468;-79
2022/11/19 05:12:02;;;;;;;23.70;14.93;;;;;;;-2.39;79.56;100244.44;1794203;78;26118;-79
2022/11/19 05:14:28;;;;;;;24.72;15.00;;;;;;;-2.36;79.75;100243.76;1826713;76;25801;-78
2022/11/19 05:16:54;;;;;;;25.97;14.90;;;;;;;-2.36;79.69;100235.89;1817982;77;25761;-79
2022/11/19 05:19:21;;;;;;;27.90;16.35;;;;;;;-2.36;79.69;100235.89;1824816;77;25901;-78
2022/11/19 05:21:47;;;;;;;31.82;16.95;;;;;;;-2.29;79.68;100255.95;1811154;77;27934;-79
2022/11/19 05:24:13;;;;;;;31.48;16.75;;;;;;;-2.31;79.72;100243.42;1811410;77;25732;-81
2022/11/19 05:26:39;;;;;;;25.57;16.27;;;;;;;-2.22;79.81;100251.08;1813668;77;26330;-79
2022/11/19 05:29:07;;;;;;;22.45;15.15;;;;;;;-2.18;79.87;100258.58;1805584;77;25727;-79
2022/11/19 05:31:34;;;;;;;22.62;14.43;;;;;;;-2.15;80.00;100257.05;1826649;77;25720;-79
2022/11/19 05:34:00;;;;;;;27.10;15.40;;;;;;;-2.11;79.90;100258.49;1797468;78;28221;-79
2022/11/19 05:36:26;;;;;;;26.40;15.60;;;;;;;-2.07;79.58;100266.49;1825987;76;25781;-80
2022/11/19 05:38:52;;;;;;;26.70;14.60;;;;;;;-2.07;79.58;100266.49;1830702;76;25751;-79
2022/11/19 05:41:19;;;;;;;26.55;14.73;;;;;;;-2.10;79.36;100262.80;1833852;76;26320;-79
2022/11/19 05:43:45;;;;;;;29.95;16.85;;;;;;;-2.12;79.28;100266.02;1830502;76;25876;-79
2022/11/19 05:46:12;;;;;;;28.67;16.42;;;;;;;-2.13;79.33;100272.20;1823564;77;27428;-80
2022/11/19 05:48:38;;;;;;;26.00;14.43;;;;;;;-2.12;79.14;100273.05;1820593;77;25839;-79
2022/11/19 05:51:05;;;;;;;29.02;15.90;;;;;;;-2.17;79.11;100273.39;1791416;78;25751;-79
2022/11/19 05:53:31;;;;;;;25.65;16.25;;;;;;;-2.16;79.23;100279.48;1819497;77;25847;-80
2022/11/19 05:55:57;;;;;;;25.15;15.28;;;;;;;-2.16;79.34;100285.54;1818418;77;25759;-80
2022/11/19 05:58:23;;;;;;;26.33;16.05;;;;;;;-2.14;79.32;100289.38;1822763;77;27420;-79
2022/11/19 06:00:55;;;;;;;26.33;15.35;;;;;;;-2.17;79.19;100291.75;1830106;77;25880;-80
2022/11/19 06:03:21;;;;;;;27.45;16.00;;;;;;;-2.17;79.19;100296.16;1827514;77;25762;-80
2022/11/19 06:05:47;;;;;;;25.95;15.78;;;;;;;-2.18;79.27;100297.13;1827815;77;25961;-81
2022/11/19 06:08:13;;;;;;;27.58;15.40;;;;;;;-2.21;79.26;100299.95;1828228;77;25829;-79
2022/11/19 06:10:40;;;;;;;29.10;16.80;;;;;;;-2.17;79.18;100310.58;1807363;77;27442;-79
2022/11/19 06:13:06;;;;;;;24.57;15.63;;;;;;;-2.17;79.18;100310.58;1826205;76;25949;-80
2022/11/19 06:15:32;;;;;;;26.40;15.72;;;;;;;-2.18;79.30;100314.17;1831091;77;25948;-80
2022/11/19 06:17:59;;;;;;;26.82;15.93;;;;;;;-2.21;79.22;100315.23;1819845;77;26123;-80
2022/11/19 06:20:27;;;;;;;28.10;16.75;;;;;;;-2.22;79.28;100317.98;1831283;77;25584;-79
2022/11/19 06:22:53;;;;;;;27.70;15.38;;;;;;;-2.26;79.35;100316.50;1815814;76;27477;-79
2022/11/19 06:25:20;;;;;;;25.17;14.70;;;;;;;-2.20;79.43;100332.63;1813712;76;25736;-79
2022/11/19 06:27:46;;;;;;;30.17;16.40;;;;;;;-2.21;79.33;100333.59;1810258;77;25889;-80
2022/11/19 06:30:15;;;;;;;30.97;17.17;;;;;;;-2.23;79.44;100338.12;1814592;77;26490;-80
2022/11/19 06:32:42;;;;;;;28.77;15.78;;;;;;;-2.21;79.52;100340.16;1807532;77;26609;-80
2022/11/19 06:35:09;;;;;;;28.47;16.90;;;;;;;-2.20;79.57;100347.06;1811463;77;28696;-79
2022/11/19 06:37:36;;;;;;;28.45;16.07;;;;;;;-2.24;79.67;100340.36;1809260;77;25877;-79
2022/11/19 06:40:03;;;;;;;28.67;16.50;;;;;;;-2.17;79.78;100345.53;1792756;77;26430;-79
2022/11/19 06:42:35;;;;;;;26.02;16.07;;;;;;;-2.14;79.89;100348.41;1811716;77;25754;-79
2022/11/19 06:45:13;;;;;;;25.88;15.35;;;;;;;-2.09;80.07;100357.61;1795160;78;25916;-79
2022/11/19 06:47:41;;;;;;;28.77;16.75;;;;;;;-2.07;80.01;100354.86;1817463;76;27462;-79
2022/11/19 06:50:09;;;;;;;34.00;18.15;;;;;;;-2.05;80.07;100360.87;1819670;77;26060;-79
2022/11/19 06:52:36;;;;;;;31.82;18.10;;;;;;;-2.00;80.32;100362.66;1816488;77;25840;-79
2022/11/19 06:55:02;;;;;;;29.92;17.82;;;;;;;-1.97;80.24;100372.47;1828841;77;25832;-80
2022/11/19 06:57:29;;;;;;;32.15;16.27;;;;;;;-1.93;80.21;100363.89;1817725;77;26677;-79
2022/11/19 06:59:55;;;;;;;30.68;17.98;;;;;;;-1.92;79.94;100365.08;1803647;78;27472;-79
2022/11/19 07:02:22;;;;;;;29.25;17.98;;;;;;;-1.93;79.87;100363.42;1807367;78;26169;-79
2022/11/19 07:04:48;;;;;;;31.00;18.12;;;;;;;-1.91;79.93;100365.45;1807954;77;25792;-79
2022/11/19 07:07:14;;;;;;;29.65;17.90;;;;;;;-1.90;79.92;100368.42;1800230;78;25750;-79
2022/11/19 07:09:41;;;;;;;32.23;19.52;;;;;;;-1.90;79.93;100364.48;1791240;78;25915;-79
2022/11/19 07:12:07;;;;;;;30.62;17.65;;;;;;;-1.89;80.05;100366.17;1792901;78;27447;-79
2022/11/19 07:14:34;;;;;;;28.98;18.60;;;;;;;-1.87;80.16;100369.99;1838611;77;25933;-80
2022/11/19 07:17:01;;;;;;;32.17;18.27;;;;;;;-1.84;80.32;100371.91;1816929;77;25839;-80
2022/11/19 07:19:27;;;;;;;31.27;18.15;;;;;;;-1.82;80.29;100375.25;1783370;78;26490;-81
2022/11/19 07:21:53;;;;;;;33.63;18.37;;;;;;;-1.83;79.99;100372.75;1803562;77;25592;-79
2022/11/19 07:24:19;;;;;;;31.30;17.67;;;;;;;-1.84;80.20;100377.16;1785227;78;27441;-80
2022/11/19 07:26:46;;;;;;;31.00;19.00;;;;;;;-1.82;80.24;100381.81;1826699;76;25732;-80
2022/11/19 07:29:14;;;;;;;32.00;19.15;;;;;;;-1.81;80.37;100374.78;1837743;76;25990;-80
2022/11/19 07:31:41;;;;;;;30.27;18.90;;;;;;;-1.78;80.58;100379.34;1813305;77;26712;-80
2022/11/19 07:34:09;;;;;;;33.83;18.48;;;;;;;-1.74;80.58;100378.63;1817873;77;26144;-80
2022/11/19 07:36:36;;;;;;;33.40;18.95;;;;;;;-1.73;80.60;100389.48;1819499;76;27491;-81
2022/11/19 07:39:04;;;;;;;31.07;18.75;;;;;;;-1.71;80.80;100386.30;1795187;78;25955;-80
2022/11/19 07:44:15;;;;;;;34.33;18.60;;;;;;;-1.67;81.16;100384.61;1809626;78;25933;-80
2022/11/19 07:46:41;;;;;;;33.28;18.60;;;;;;;-1.64;81.20;100386.17;1819698;77;26102;-79
2022/11/19 07:49:08;;;;;;;30.27;18.35;;;;;;;-1.62;81.00;100390.38;1817639;77;27426;-81
2022/11/19 07:51:34;;;;;;;32.00;19.37;;;;;;;-1.58;81.03;100392.28;1820349;77;25827;-81
2022/11/19 07:54:00;;;;;;;39.05;22.73;;;;;;;-1.58;80.93;100395.75;1796107;78;25873;-80
2022/11/19 07:56:27;;;;;;;34.75;20.75;;;;;;;-1.58;80.89;100392.28;1822232;77;26367;-80
2022/11/19 07:58:53;;;;;;;29.50;17.80;;;;;;;-1.57;81.06;100387.41;1829192;77;25758;-80
2022/11/19 08:01:22;;;;;;;34.27;18.57;;;;;;;-1.54;80.93;100381.09;1830572;77;27426;-80
2022/11/19 08:03:50;;;;;;;28.73;18.45;;;;;;;-1.53;80.85;100383.59;1837133;77;25794;-80
2022/11/19 08:06:19;;;;;;;41.60;26.75;;;;;;;-1.49;80.82;100388.12;1816144;76;26368;-80
2022/11/19 08:08:46;;;;;;;33.67;21.17;;;;;;;-1.50;81.18;100391.72;1794567;78;25769;-79
2022/11/19 08:11:15;;;;;;;36.88;22.87;;;;;;;-1.47;81.72;100392.31;1813531;77;25889;-80
2022/11/19 08:13:42;;;;;;;37.35;22.55;;;;;;;-1.42;81.32;100395.91;1830964;76;28718;-86
2022/11/19 08:18:54;;;;;;;41.00;22.58;;;;;;;-1.37;81.18;100398.57;1772450;77;26088;-82
2022/11/19 08:21:20;;;;;;;39.08;23.92;;;;;;;-1.34;81.11;100406.67;1814009;76;25759;-85
2022/11/19 08:23:47;;;;;;;35.78;22.07;;;;;;;-1.32;81.02;100401.67;1768752;78;25782;-86
2022/11/19 08:26:13;;;;;;;34.45;20.57;;;;;;;-1.28;80.98;100399.66;1798041;79;27496;-85
2022/11/19 08:28:39;;;;;;;37.33;21.40;;;;;;;-1.26;80.91;100402.51;1783823;79;25866;-82
2022/11/19 08:31:08;;;;;;;31.07;19.45;;;;;;;-1.23;80.70;100397.50;1817271;77;25836;-86
2022/11/19 08:33:35;;;;;;;36.83;20.23;;;;;;;-1.19;80.67;100398.94;1814067;77;25751;-86
2022/11/19 08:36:01;;;;;;;33.53;19.62;;;;;;;-1.17;80.49;100402.28;1825548;77;25815;-88
2022/11/19 08:38:28;;;;;;;29.95;19.05;;;;;;;-1.19;80.20;100401.09;1814943;77;27435;-89
2022/11/19 08:42:58;;;;;;;34.20;19.20;;;;;;;-1.16;80.19;100405.28;1819576;77;25835;-90
2022/11/19 08:43:22;;;;;;;30.20;19.15;;;;;;;-1.13;80.03;100404.56;1818733;77;25298;-83
2022/11/19 08:45:55;;;;;;;30.95;19.15;;;;;;;-1.12;79.71;100402.78;1795992;78;25873;-86
2022/11/19 08:48:21;;;;;;;30.88;19.80;;;;;;;-1.06;79.78;100407.56;1805594;77;25851;-87
2022/11/19 08:50:48;;;;;;;30.75;18.45;;;;;;;-1.00;79.76;100411.88;1795220;78;27909;-86
2022/11/19 08:53:14;;;;;;;32.63;18.98;;;;;;;-0.95;79.65;100407.58;1800480;78;25988;-87
2022/11/19 08:55:40;;;;;;;33.38;18.37;;;;;;;-0.95;79.40;100412.37;1796400;78;25475;-81
2022/11/19 08:58:07;;;;;;;37.05;22.05;;;;;;;-0.91;79.49;100415.12;1826553;77;25895;-83
2022/11/19 09:00:36;;;;;;;33.08;19.65;;;;;;;-0.89;79.44;100412.36;1830258;77;26097;-82
2022/11/19 09:03:04;;;;;;;28.87;18.45;;;;;;;-0.86;79.40;100409.03;1814034;77;27459;-92
2022/11/19 09:05:32;;;;;;;24.77;16.45;;;;;;;-0.82;79.14;100414.41;1816265;77;33228;-87
2022/11/19 09:07:59;;;;;;;29.23;16.90;;;;;;;-0.83;78.75;100417.14;1832168;76;26037;-82
2022/11/19 09:10:26;;;;;;;30.15;19.87;;;;;;;-0.87;78.54;100411.29;1819556;76;25757;-81
2022/11/19 09:12:52;;;;;;;28.20;16.85;;;;;;;-0.84;78.57;100414.16;1823667;76;25909;-82
2022/11/19 09:15:20;;;;;;;30.95;18.60;;;;;;;-0.84;78.35;100416.33;1812793;78;27473;-82
2022/11/19 09:17:46;;;;;;;26.23;16.82;;;;;;;-0.84;78.40;100421.58;1823730;77;25330;-82
2022/11/19 09:20:13;;;;;;;30.27;18.70;;;;;;;-0.85;78.18;100413.79;1822593;77;25823;-83
2022/11/19 09:22:39;;;;;;;29.48;18.70;;;;;;;-0.84;78.30;100411.06;1795215;77;25766;-82
2022/11/19 09:25:07;;;;;;;28.23;16.30;;;;;;;-0.82;78.20;100413.56;1820718;77;25723;-82
2022/11/19 09:27:36;;;;;;;25.10;16.60;;;;;;;-0.79;77.87;100414.62;1828582;77;27693;-82
2022/11/19 09:30:06;;;;;;;25.00;15.90;;;;;;;-0.80;77.75;100419.07;1823318;77;25904;-81
2022/11/19 09:32:33;;;;;;;25.77;15.63;;;;;;;-0.79;77.51;100417.25;1825165;77;25956;-82
2022/11/19 09:35:00;;;;;;;25.25;16.60;;;;;;;-0.80;77.53;100420.38;1814555;77;25920;-82
2022/11/19 09:37:30;;;;;;;27.58;17.35;;;;;;;-0.83;77.11;100423.23;1815908;77;25730;-82
2022/11/19 09:39:54;;;;;;;30.27;18.07;;;;;;;-0.83;77.34;100419.30;1821885;77;28701;-81
2022/11/19 09:42:44;;;;;;;26.75;17.00;;;;;;;-0.77;77.49;100417.16;1827341;77;25241;-82
2022/11/19 09:45:39;;;;;;;34.37;23.53;;;;;;;-0.72;77.46;100418.93;1791338;78;26106;-82
2022/11/19 09:48:22;;;;;;;33.70;18.82;;;;;;;-0.73;77.33;100417.27;1831419;77;25750;-87
2022/11/19 09:50:59;;;;;;;30.80;17.77;;;;;;;-0.70;77.30;100422.27;1823319;77;25265;-91
2022/11/19 09:53:42;;;;;;;32.28;20.43;;;;;;;-0.66;77.20;100414.53;1765243;78;26235;-91
2022/11/19 09:56:05;;;;;;;29.92;19.57;;;;;;;-0.62;77.01;100415.45;1786108;78;25394;-86
2022/11/19 09:58:41;;;;;;;35.85;20.55;;;;;;;-0.63;76.70;100414.27;1786009;78;25338;-90
2022/11/19 10:01:17;;;;;;;28.65;18.50;;;;;;;-0.62;76.89;100417.28;1777895;79;26612;-86
2022/11/19 10:03:49;;;;;;;30.55;18.65;;;;;;;-0.61;76.58;100418.94;1835564;77;25811;-84
2022/11/19 10:06:35;;;;;;;28.50;17.82;;;;;;;-0.63;76.16;100423.01;1829010;77;26920;-81
2022/11/19 10:09:12;;;;;;;34.58;21.50;;;;;;;-0.68;75.95;100417.77;1817059;77;25892;-84
2022/11/19 10:12:14;;;;;;;37.95;24.25;;;;;;;-0.72;75.57;100414.52;1804062;77;25321;-84
2022/11/19 10:15:21;;;;;;;31.27;19.20;;;;;;;-0.69;75.99;100416.08;1821806;77;25955;-85
2022/11/19 10:18:17;;;;;;;25.32;16.67;;;;;;;-0.63;76.16;100416.44;1699897;81;25919;-83
2022/11/19 10:21:07;;;;;;;30.70;19.12;;;;;;;-0.60;75.45;100408.78;1657541;83;27313;-82
2022/11/19 10:23:54;;;;;;;30.12;19.95;;;;;;;-0.66;75.34;100419.80;1758785;79;25941;-86
2022/11/19 10:26:38;;;;;;;33.35;19.50;;;;;;;-0.66;75.42;100409.27;1826567;77;25541;-85
2022/11/19 10:29:13;;;;;;;33.80;19.10;;;;;;;-0.63;75.59;100405.07;1807354;77;25774;-85
2022/11/19 10:31:47;;;;;;;26.68;17.02;;;;;;;-0.58;75.51;100401.14;1801718;78;25761;-89
2022/11/19 10:34:30;;;;;;;33.42;19.37;;;;;;;-0.55;75.07;100396.93;1782415;79;27486;-88
2022/11/19 10:37:18;;;;;;;30.85;19.42;;;;;;;-0.55;75.11;100402.19;1826527;77;25826;-80
2022/11/19 10:39:55;;;;;;;36.03;20.75;;;;;;;-0.52;75.67;100401.97;1793039;79;25947;-88
2022/11/19 10:42:36;;;;;;;35.63;24.10;;;;;;;-0.47;75.19;100401.60;1820986;77;25768;-89
2022/11/19 10:45:17;;;;;;;36.45;19.87;;;;;;;-0.46;74.71;100406.73;1814900;77;25476;-87
2022/11/19 10:48:06;;;;;;;35.15;21.65;;;;;;;-0.48;74.38;100402.55;1809219;77;27536;-85
2022/11/19 10:50:32;;;;;;;34.67;21.35;;;;;;;-0.49;74.24;100405.65;1812915;78;25330;-91
2022/11/19 10:53:25;;;;;;;33.83;21.73;;;;;;;-0.45;74.33;100407.58;1791843;79;25324;-86
2022/11/19 10:56:05;;;;;;;34.83;21.48;;;;;;;-0.45;74.33;100408.39;1801247;76;26554;-80
2022/11/19 10:58:44;;;;;;;32.33;20.85;;;;;;;-0.42;74.35;100409.95;1815546;77;26508;-81
2022/11/19 11:01:22;;;;;;;26.95;16.87;;;;;;;-0.41;74.11;100408.53;1809377;78;27699;-81
2022/11/19 11:04:11;;;;;;;27.90;17.45;;;;;;;-0.36;73.86;100419.98;1778782;79;26072;-84
2022/11/19 11:06:57;;;;;;;30.95;19.70;;;;;;;-0.35;73.78;100426.46;1827026;77;25360;-81
2022/11/19 11:09:39;;;;;;;25.52;15.83;;;;;;;-0.33;73.71;100419.75;1799954;77;26930;-82
2022/11/19 11:15:20;;;;;;;26.93;17.05;;;;;;;-0.23;73.30;100416.73;1809318;77;27679;-82
2022/11/19 11:18:00;;;;;;;22.75;15.20;;;;;;;-0.20;72.97;100418.66;1792452;78;25999;-81
2022/11/19 11:20:29;;;;;;;25.05;16.60;;;;;;;-0.23;72.58;100408.37;1808723;77;33216;-83
2022/11/19 11:23:15;;;;;;;21.30;13.15;;;;;;;-0.23;72.42;100407.05;1815890;77;25832;-82
2022/11/19 11:26:07;;;;;;;20.77;14.43;;;;;;;-0.23;71.81;100411.47;1813612;77;26434;-82
2022/11/19 11:28:34;;;;;;;30.50;19.50;;;;;;;-0.23;72.35;100408.37;1815272;77;27436;-81
2022/11/19 11:31:05;;;;;;;29.65;20.12;;;;;;;-0.19;72.43;100408.47;1777328;78;25330;-81
2022/11/19 11:33:38;;;;;;;27.45;18.40;;;;;;;-0.18;71.93;100404.89;1790795;78;25593;-82
2022/11/19 11:36:18;;;;;;;28.35;17.75;;;;;;;-0.21;71.42;100401.66;1815350;77;26554;-82
2022/11/19 11:38:48;;;;;;;24.15;16.90;;;;;;;-0.19;71.77;100403.20;1820106;77;25722;-83
2022/11/19 11:41:21;;;;;;;27.35;16.85;;;;;;;-0.16;71.46;100403.45;1821423;77;27443;-82
2022/11/19 11:44:01;;;;;;;21.87;14.05;;;;;;;-0.14;71.17;100397.11;1824121;77;26501;-82
2022/11/19 11:46:36;;;;;;;23.35;14.58;;;;;;;-0.13;70.86;100402.71;1819796;77;25778;-81